Kypros Bravery — 5BET4 — position and weather

sailwx.info

Track history (hours):
 
Tides and Currents Weather Stations Pressure Air Temp Water Temp Dewpoint Dewpoint Depression Visibility Wind Speed Wind Dir Waves Ship Positions

Kypros Bravery

Last reported at 2018-Feb-24 02:25 UTC. Time now 2018-Feb-25 17:51 UTC.
Position N 36°01' E 014°57'.

Length 225 m; draft 8.5 m.

Type: Cargo ship. MMSI: 212498000.

Date/timePositionNaut miles runAvg speedWind from/ knotsBaromVisibWave heightAir tempDewpointWater temp
2018-Feb-24 02:25N 36°01' E 014°57'512.0
2018-Feb-24 02:00N 36°02' E 014°50'612.0
2018-Feb-24 01:30N 36°02' E 014°43'611.9
2018-Feb-24 01:00N 36°02' E 014°36'612.1
2018-Feb-24 00:30N 36°02' E 014°28'4 7.1
2018-Feb-24 00:00N 36°01' E 014°24'0 0.2
2018-Feb-23 23:30N 36°01' E 014°24'0 0.0
2018-Feb-23 23:00N 36°01' E 014°24'0 0.0
2018-Feb-23 22:30N 36°01' E 014°24'0 0.0
2018-Feb-23 22:00N 36°01' E 014°24'0 0.1
2018-Feb-23 21:30N 36°01' E 014°24'0 0.1
2018-Feb-23 21:00N 36°01' E 014°24'0 0.0
2018-Feb-23 20:30N 36°01' E 014°24'0 0.0
2018-Feb-23 20:00N 36°01' E 014°24'0 0.1
2018-Feb-23 19:30N 36°01' E 014°24'0 0.1
2018-Feb-23 19:00N 36°01' E 014°24'0 0.0
2018-Feb-23 18:30N 36°01' E 014°24'0 0.1
2018-Feb-23 18:00N 36°01' E 014°24'0 0.1
2018-Feb-23 17:30N 36°01' E 014°24'0 0.0
2018-Feb-23 17:00N 36°01' E 014°24'0 0.0
2018-Feb-23 16:30N 36°01' E 014°24'0 0.1
2018-Feb-23 16:00N 36°01' E 014°24'0 0.2
2018-Feb-23 15:30N 36°01' E 014°24'0 0.1
2018-Feb-23 15:00N 36°01' E 014°24'0 0.0
2018-Feb-23 14:30N 36°01' E 014°24'0 0.0
2018-Feb-23 14:00N 36°01' E 014°24'0 0.0
2018-Feb-23 13:30N 36°01' E 014°24'0 0.1
2018-Feb-23 13:00N 36°01' E 014°24'0 0.1
2018-Feb-23 12:30N 36°01' E 014°24'0 0.1
2018-Feb-23 12:00N 36°01' E 014°24'0 0.0
2018-Feb-23 11:30N 36°01' E 014°24'0 0.5
2018-Feb-23 11:00N 36°01' E 014°23'0 0.1
2018-Feb-23 10:30N 36°01' E 014°23'1 1.9
2018-Feb-23 09:58N 36°01' E 014°25'3 6.2
2018-Feb-23 09:30N 36°01' E 014°28'5 9.8
2018-Feb-23 09:00N 36°01' E 014°34'510.4
2018-Feb-23 08:30N 36°01' E 014°41'510.4
2018-Feb-23 08:00N 36°01' E 014°47'2 3.3
2018-Feb-23 07:30N 36°01' E 014°49'1 2.5
2018-Feb-23 07:00N 36°01' E 014°51'10510.9
2018-Feb-22 21:17N 37°22' E 016°16'17811.3
2018-Feb-22 05:32N 39°43' E 018°35'011.7
2018-Feb-22 05:30N 39°43' E 018°35'611.4
2018-Feb-22 05:00N 39°47' E 018°40'611.4
2018-Feb-22 04:30N 39°53' E 018°40'611.8
2018-Feb-22 04:00N 39°59' E 018°40'711.8
2018-Feb-22 03:26N 40°05' E 018°40'  
Track history (hours):
 
Tides and Currents Weather Stations Pressure Air Temp Water Temp Dewpoint Dewpoint Depression Visibility Wind Speed Wind Dir Waves Ship Positions

Kypros Bravery

Last reported at 2018-Feb-24 02:25 UTC. Time now 2018-Feb-25 17:51 UTC.
Position N 36°01' E 014°57'.

Length 225 m; draft 8.5 m.

Type: Cargo ship. MMSI: 212498000.

Date/timePositionNaut miles runAvg speedWind from/ knotsBaromVisibWave heightAir tempDewpointWater temp
2018-Feb-24 02:25N 36°01' E 014°57'512.0
2018-Feb-24 02:00N 36°02' E 014°50'612.0
2018-Feb-24 01:30N 36°02' E 014°43'611.9
2018-Feb-24 01:00N 36°02' E 014°36'612.1
2018-Feb-24 00:30N 36°02' E 014°28'4 7.1
2018-Feb-24 00:00N 36°01' E 014°24'0 0.2
2018-Feb-23 23:30N 36°01' E 014°24'0 0.0
2018-Feb-23 23:00N 36°01' E 014°24'0 0.0
2018-Feb-23 22:30N 36°01' E 014°24'0 0.0
2018-Feb-23 22:00N 36°01' E 014°24'0 0.1
2018-Feb-23 21:30N 36°01' E 014°24'0 0.1
2018-Feb-23 21:00N 36°01' E 014°24'0 0.0
2018-Feb-23 20:30N 36°01' E 014°24'0 0.0
2018-Feb-23 20:00N 36°01' E 014°24'0 0.1
2018-Feb-23 19:30N 36°01' E 014°24'0 0.1
2018-Feb-23 19:00N 36°01' E 014°24'0 0.0
2018-Feb-23 18:30N 36°01' E 014°24'0 0.1
2018-Feb-23 18:00N 36°01' E 014°24'0 0.1
2018-Feb-23 17:30N 36°01' E 014°24'0 0.0
2018-Feb-23 17:00N 36°01' E 014°24'0 0.0
2018-Feb-23 16:30N 36°01' E 014°24'0 0.1
2018-Feb-23 16:00N 36°01' E 014°24'0 0.2
2018-Feb-23 15:30N 36°01' E 014°24'0 0.1
2018-Feb-23 15:00N 36°01' E 014°24'0 0.0
2018-Feb-23 14:30N 36°01' E 014°24'0 0.0
2018-Feb-23 14:00N 36°01' E 014°24'0 0.0
2018-Feb-23 13:30N 36°01' E 014°24'0 0.1
2018-Feb-23 13:00N 36°01' E 014°24'0 0.1
2018-Feb-23 12:30N 36°01' E 014°24'0 0.1
2018-Feb-23 12:00N 36°01' E 014°24'0 0.0
2018-Feb-23 11:30N 36°01' E 014°24'0 0.5
2018-Feb-23 11:00N 36°01' E 014°23'0 0.1
2018-Feb-23 10:30N 36°01' E 014°23'1 1.9
2018-Feb-23 09:58N 36°01' E 014°25'3 6.2
2018-Feb-23 09:30N 36°01' E 014°28'5 9.8
2018-Feb-23 09:00N 36°01' E 014°34'510.4
2018-Feb-23 08:30N 36°01' E 014°41'510.4
2018-Feb-23 08:00N 36°01' E 014°47'2 3.3
2018-Feb-23 07:30N 36°01' E 014°49'1 2.5
2018-Feb-23 07:00N 36°01' E 014°51'10510.9
2018-Feb-22 21:17N 37°22' E 016°16'17811.3
2018-Feb-22 05:32N 39°43' E 018°35'011.7
2018-Feb-22 05:30N 39°43' E 018°35'611.4
2018-Feb-22 05:00N 39°47' E 018°40'611.4
2018-Feb-22 04:30N 39°53' E 018°40'611.8
2018-Feb-22 04:00N 39°59' E 018°40'711.8
2018-Feb-22 03:26N 40°05' E 018°40'  

Dump ship's entire track history